Airfield :
LOGIN :

Register | Disclaimer

   EN    FR    IT 

 










Legend :    VFR   Marginal VFR   IFR   Intensive IFR   Very Intensive IFR
Visi :
Ceiling :
>= 8 km
>= 3000ft
5 to 8 km
1000 to 3000 ft
1500m to 5 km
500 to 1000 ft
800 to 1500m
200 to 500 ft
< 800m
< 200 ft
Symbols :   Thunderstorms  Fog  Heavy snow  Heavy precipitations  Wind > 20 kt
SIGMETs :     Misc.  Thunderstorms  Icing  Turbulence  Mountain Waves  Volcanic Ashes






- Airport Elevation : 90 ft
- IATA code : NTE


LFRS - Nantes

CURRENT METAR :
  • 021400Z AUTO 24005KT 9999 OVC041 10/04 Q1034 NOSIG

EXPIRED METARs :
  • 021330Z AUTO 25005KT 220V290 9999 OVC040 10/04 Q1034 NOSIG
  • 021300Z AUTO 23006KT 200V260 9999 OVC040 10/03 Q1035 NOSIG
  • 021230Z AUTO 23006KT 9999 OVC041 10/04 Q1035 NOSIG
  • 021200Z AUTO 23005KT 9999 OVC041 09/04 Q1035 NOSIG
  • 021130Z AUTO 22006KT 9999 OVC042 09/04 Q1035 NOSIG

TAF TAF LFRS
Valid from the 02 at 12:00 until the 03 at 18:00 UTC


021100Z 0212/0318 26003KT 9999 BKN040
PROB40
TEMPO 0300/0310 2000 BR
PROB30
TEMPO 0303/0309 0500 FG VV///
TEMPO 0308/0311 BKN004
ATIS : +33 2 40 05 12 74



MET'MAP, your aeronautical weather chart ! - Copyright ORBIFLY December 2007 - Disclaimer

ORBIFLY MET'MAP TEAM :

Programming & Development : Alexandra Zaïnal
Original concept : Baudouin d'Aumeries
Technical & hardware support : Manuel Goepfert
Assistance : Marc-Olivier Méhu




SOURCES & CREDITS :

   NOAA